Time;durP1;ratioP1;P1;durP2;ratioP2;P2;SDS_P1;SDS_P2;PMS_P1;PMS_P2;Temp;Humidity;BMP_temperature;BMP_pressure;BME280_temperature;BME280_humidity;BME280_pressure;Samples;Min_cycle;Max_cycle;Signal;HPM_P1;HPM_P2
2023/01/19 00:00:14;;;;;;;20.42;10.23;;;;;;;1.18;87.84;98975.50;7345410;19;20021;-66
2023/01/19 00:02:39;;;;;;;22.70;11.30;;;;;;;1.02;87.43;98977.94;7347515;19;20017;-66
2023/01/19 00:05:05;;;;;;;22.15;10.90;;;;;;;0.88;87.73;98975.09;7347751;19;20007;-73
2023/01/19 00:07:30;;;;;;;16.50;9.85;;;;;;;0.95;87.91;98976.53;7347523;19;20010;-73
2023/01/19 00:09:55;;;;;;;22.60;8.93;;;;;;;1.01;88.22;98964.91;7348364;19;20783;-69
2023/01/19 00:12:19;;;;;;;16.23;8.02;;;;;;;1.00;88.43;98981.59;7349016;19;20470;-73
2023/01/19 00:14:44;;;;;;;31.45;12.85;;;;;;;0.87;88.58;98980.41;7347724;19;20078;-72
2023/01/19 00:17:08;;;;;;;20.67;10.70;;;;;;;0.81;88.91;98981.50;7348399;19;20018;-75
2023/01/19 00:19:33;;;;;;;19.33;8.93;;;;;;;0.86;88.84;98965.56;7346850;19;20014;-72
2023/01/19 00:21:58;;;;;;;17.08;10.15;;;;;;;0.90;89.16;98957.50;7346614;19;20007;-75
2023/01/19 00:24:22;;;;;;;20.73;11.48;;;;;;;0.87;89.23;98975.16;7346690;19;20010;-72
2023/01/19 00:26:47;;;;;;;16.60;9.52;;;;;;;0.87;89.29;98972.53;7348286;19;20014;-73
2023/01/19 00:29:14;;;;;;;22.92;11.13;;;;;;;0.75;89.46;98973.91;7346863;19;19999;-76
2023/01/19 00:31:39;;;;;;;15.88;8.90;;;;;;;0.83;89.61;98971.81;7347753;19;20058;-72
2023/01/19 00:34:05;;;;;;;17.05;8.05;;;;;;;0.83;89.76;98979.66;7346877;19;20018;-72
2023/01/19 00:36:30;;;;;;;20.33;8.10;;;;;;;0.93;89.88;98991.47;7345736;19;20014;-72
2023/01/19 00:38:55;;;;;;;17.02;7.88;;;;;;;0.96;89.80;98969.50;7346091;19;20192;-74
2023/01/19 00:42:38;;;;;;;22.80;11.15;;;;;;;0.92;89.53;98962.66;7346125;19;20015;-65
2023/01/19 00:44:04;;;;;;;16.42;9.00;;;;;;;1.02;89.57;98991.06;7345751;19;20022;-65
2023/01/19 00:46:29;;;;;;;18.50;8.68;;;;;;;1.03;89.27;98956.03;7344146;19;20026;-63
2023/01/19 00:48:53;;;;;;;23.48;11.82;;;;;;;0.74;89.27;98972.19;7347922;19;20341;-64
2023/01/19 00:51:18;;;;;;;19.33;8.40;;;;;;;0.91;89.63;98980.19;7347431;19;20086;-64
2023/01/19 00:53:43;;;;;;;14.68;8.82;;;;;;;0.93;89.64;98952.13;7345718;19;20007;-63
2023/01/19 00:56:07;;;;;;;18.65;10.25;;;;;;;0.61;89.88;98952.63;7348377;19;20079;-64
2023/01/19 00:58:32;;;;;;;18.15;8.90;;;;;;;0.67;90.12;98944.53;7346147;19;20318;-64
2023/01/19 01:01:02;;;;;;;18.48;10.85;;;;;;;0.80;90.17;98948.31;7348302;19;20142;-65
2023/01/19 01:03:27;;;;;;;13.45;6.60;;;;;;;0.81;90.18;98949.16;7348765;19;20014;-64
2023/01/19 01:05:52;;;;;;;13.02;6.60;;;;;;;0.87;90.26;98964.66;7346348;19;20037;-64
2023/01/19 01:08:16;;;;;;;25.88;11.95;;;;;;;0.68;90.40;98954.06;7345500;19;20007;-65
2023/01/19 01:10:41;;;;;;;18.10;8.40;;;;;;;0.76;90.31;98938.03;7345000;19;20123;-68
2023/01/19 01:13:06;;;;;;;17.13;8.77;;;;;;;0.83;90.46;98934.22;7344277;19;20446;-66
2023/01/19 01:15:30;;;;;;;16.65;9.40;;;;;;;0.82;90.46;98943.00;7351699;19;20109;-65
2023/01/19 01:17:55;;;;;;;25.30;12.35;;;;;;;0.60;90.52;98943.91;7346077;19;20021;-66
2023/01/19 01:20:25;;;;;;;13.50;7.15;;;;;;;0.82;90.77;98969.22;7344251;19;20021;-69
2023/01/19 01:22:52;;;;;;;23.65;8.50;;;;;;;0.87;90.71;98934.03;7347376;19;20092;-72
2023/01/19 01:25:20;;;;;;;13.88;8.15;;;;;;;0.90;90.63;98960.13;7344268;19;20417;-77
2023/01/19 01:27:45;;;;;;;21.92;12.23;;;;;;;0.68;90.60;98951.44;7349363;19;20014;-78
2023/01/19 01:30:13;;;;;;;24.45;12.73;;;;;;;0.62;90.92;98962.22;7350688;19;20021;-76
2023/01/19 01:32:38;;;;;;;22.77;10.60;;;;;;;0.87;91.15;98949.78;7346025;19;20017;-77
2023/01/19 01:35:03;;;;;;;23.67;10.82;;;;;;;0.65;91.14;98947.22;7349847;19;20018;-74
2023/01/19 01:37:28;;;;;;;24.23;11.23;;;;;;;0.60;91.05;98954.41;7346446;19;20347;-77
2023/01/19 01:39:53;;;;;;;20.77;9.38;;;;;;;0.84;91.19;98933.28;7346176;19;20369;-80
2023/01/19 01:42:19;;;;;;;16.58;8.13;;;;;;;0.74;91.59;98945.97;7345815;19;20029;-69
2023/01/19 01:44:50;;;;;;;21.27;10.13;;;;;;;0.81;91.26;98950.00;7343715;19;20002;-71
2023/01/19 01:47:44;;;;;;;21.25;11.63;;;;;;;0.76;91.49;98953.78;7345510;19;20007;-72
2023/01/19 01:50:15;;;;;;;22.98;13.25;;;;;;;0.69;91.48;98951.38;7342062;19;20039;-70
2023/01/19 01:52:48;;;;;;;19.60;9.50;;;;;;;0.57;91.74;98958.91;7341254;19;20015;-70
2023/01/19 01:55:14;;;;;;;21.65;10.18;;;;;;;0.72;91.78;98953.91;7342167;19;20011;-70
2023/01/19 01:57:42;;;;;;;24.95;11.80;;;;;;;0.53;91.83;98960.00;7345203;19;20089;-72
2023/01/19 02:00:08;;;;;;;29.02;13.65;;;;;;;0.50;91.84;98957.50;7342797;19;20014;-72
2023/01/19 02:02:50;;;;;;;24.80;10.50;;;;;;;0.55;91.76;98968.66;7344136;19;20347;-72
2023/01/19 02:05:28;;;;;;;19.85;11.32;;;;;;;0.81;91.94;98957.88;7343406;19;20450;-70
2023/01/19 02:13:29;;;;;;;23.27;12.00;;;;;;;0.43;92.03;98946.41;7340855;19;20030;-69
2023/01/19 02:15:58;;;;;;;25.42;13.88;;;;;;;0.62;92.13;98949.09;7342530;19;20388;-72
2023/01/19 02:18:26;;;;;;;16.83;8.77;;;;;;;0.61;92.34;98947.41;7339382;19;20026;-70
2023/01/19 02:21:21;;;;;;;21.98;12.20;;;;;;;0.61;92.40;98950.03;7341205;19;20010;-73
2023/01/19 02:23:52;;;;;;;13.38;7.07;;;;;;;0.67;92.57;98965.50;7341036;19;20021;-66
2023/01/19 02:26:23;;;;;;;26.50;13.25;;;;;;;0.65;92.52;98952.47;7344139;19;20082;-65
2023/01/19 02:28:58;;;;;;;24.30;12.27;;;;;;;0.57;92.39;98945.81;7342954;19;20018;-66
2023/01/19 02:31:23;;;;;;;25.10;13.15;;;;;;;0.52;92.15;98925.03;7347635;19;20002;-68
2023/01/19 02:33:48;;;;;;;18.15;9.07;;;;;;;0.42;92.18;98941.22;7343454;19;20015;-66
2023/01/19 02:36:15;;;;;;;25.58;11.95;;;;;;;0.50;92.29;98941.75;7345626;19;20025;-63
2023/01/19 02:38:43;;;;;;;36.58;14.15;;;;;;;0.34;92.39;98957.25;7343370;19;20007;-63
2023/01/19 02:41:11;;;;;;;19.38;10.60;;;;;;;0.32;92.39;98959.97;7344453;19;20482;-65
2023/01/19 02:43:37;;;;;;;10.60;7.00;;;;;;;0.45;92.45;98956.84;7342536;19;20010;-63
2023/01/19 02:46:02;;;;;;;27.45;12.68;;;;;;;0.27;92.83;98958.44;7343223;19;20102;-66
2023/01/19 02:48:27;;;;;;;18.65;10.18;;;;;;;0.33;92.73;98955.56;7343522;19;20027;-64
2023/01/19 02:50:56;;;;;;;15.13;8.88;;;;;;;0.66;92.91;98938.44;7344642;19;20018;-64
2023/01/19 02:53:40;;;;;;;17.38;9.50;;;;;;;0.55;92.76;98924.91;7344115;19;20074;-64
2023/01/19 02:56:22;;;;;;;25.38;11.68;;;;;;;0.62;92.75;98941.25;7343119;19;20015;-62
2023/01/19 02:59:05;;;;;;;23.48;11.43;;;;;;;0.46;92.84;98958.53;7343013;19;20018;-63
2023/01/19 03:01:46;;;;;;;22.38;9.98;;;;;;;0.54;92.97;98951.22;7344993;19;20336;-64
2023/01/19 03:04:33;;;;;;;21.65;11.68;;;;;;;0.84;93.04;98942.03;7344483;19;20105;-63
2023/01/19 03:07:06;;;;;;;15.30;8.98;;;;;;;0.81;92.73;98939.53;7343420;19;20470;-63
2023/01/19 03:09:40;;;;;;;18.87;10.97;;;;;;;0.86;92.96;98955.94;7343061;19;20122;-63
2023/01/19 03:12:28;;;;;;;20.63;11.13;;;;;;;0.70;92.75;98947.84;7344135;19;20030;-64
2023/01/19 03:14:58;;;;;;;22.77;11.40;;;;;;;0.65;92.47;98946.34;7344569;19;20010;-63
2023/01/19 03:17:26;;;;;;;25.30;12.60;;;;;;;0.68;92.57;98951.44;7347041;19;20036;-64
2023/01/19 03:19:53;;;;;;;18.52;9.43;;;;;;;0.70;92.53;98939.13;7344995;19;20433;-63
2023/01/19 03:22:25;;;;;;;21.60;10.32;;;;;;;0.59;92.69;98952.69;7342555;19;20097;-63
2023/01/19 03:24:54;;;;;;;15.77;8.50;;;;;;;0.72;92.83;98980.13;7342595;19;20022;-62
2023/01/19 03:27:25;;;;;;;13.15;7.93;;;;;;;0.81;92.89;98978.03;7342557;19;20457;-63
2023/01/19 03:29:56;;;;;;;18.25;8.93;;;;;;;0.66;92.99;98997.91;7349008;19;20022;-64
2023/01/19 03:32:28;;;;;;;20.63;11.25;;;;;;;0.65;93.05;98985.72;7350360;19;20119;-64
2023/01/19 03:34:55;;;;;;;21.95;10.50;;;;;;;0.63;93.05;99003.28;7348163;19;20667;-65
2023/01/19 03:37:21;;;;;;;21.38;9.88;;;;;;;0.78;93.17;99005.25;7349141;19;20033;-65
2023/01/19 03:39:46;;;;;;;10.77;6.65;;;;;;;0.83;93.08;98998.03;7348932;19;20489;-64
2023/01/19 03:42:14;;;;;;;17.50;10.65;;;;;;;0.62;93.16;98983.19;7350714;19;20524;-64
2023/01/19 03:44:41;;;;;;;13.23;6.45;;;;;;;0.81;93.20;98992.00;7351783;19;20054;-63
2023/01/19 03:47:09;;;;;;;12.48;6.45;;;;;;;0.84;93.14;98991.03;7349677;19;20326;-64
2023/01/19 03:49:35;;;;;;;12.82;7.10;;;;;;;0.82;93.17;99001.56;7349373;19;20456;-64
2023/01/19 03:52:00;;;;;;;26.08;13.15;;;;;;;0.69;93.21;99003.84;7349029;19;20023;-63
2023/01/19 03:54:25;;;;;;;22.80;10.52;;;;;;;0.60;93.47;99006.88;7346607;19;20017;-64
2023/01/19 03:56:51;;;;;;;22.90;11.15;;;;;;;0.63;93.36;99016.38;7348376;19;20011;-64
2023/01/19 03:59:16;;;;;;;17.33;10.25;;;;;;;0.83;93.37;99016.41;7349292;19;20318;-64
2023/01/19 04:01:40;;;;;;;21.13;13.10;;;;;;;0.57;93.29;99025.34;7350845;19;20302;-64
2023/01/19 04:04:05;;;;;;;20.77;10.75;;;;;;;0.60;93.57;99030.47;7349084;19;20444;-64
2023/01/19 04:06:30;;;;;;;24.10;13.15;;;;;;;0.62;93.75;99036.50;7348740;19;20014;-64
2023/01/19 04:08:55;;;;;;;29.33;15.77;;;;;;;0.53;93.61;99057.88;7348350;19;20011;-65
2023/01/19 04:11:20;;;;;;;27.17;12.55;;;;;;;0.46;93.92;99050.28;7347880;19;20014;-63
2023/01/19 04:13:44;;;;;;;17.55;9.35;;;;;;;0.54;94.08;99058.72;7347722;19;20037;-65
2023/01/19 04:16:10;;;;;;;20.35;10.43;;;;;;;0.70;94.11;99054.56;7347633;19;20017;-64
2023/01/19 04:18:35;;;;;;;18.50;9.68;;;;;;;0.79;94.15;99059.41;7348610;19;20345;-62
2023/01/19 04:21:01;;;;;;;11.70;6.65;;;;;;;0.77;93.96;99053.41;7348861;19;20329;-65
2023/01/19 04:23:26;;;;;;;16.92;9.02;;;;;;;0.82;93.99;99059.28;7347170;19;20030;-65
2023/01/19 04:25:59;;;;;;;23.20;10.65;;;;;;;0.66;94.08;99058.25;7348402;19;20010;-64
2023/01/19 04:28:24;;;;;;;10.30;7.63;;;;;;;1.00;93.85;99069.06;7350368;19;20027;-63
2023/01/19 04:30:50;;;;;;;18.10;11.75;;;;;;;0.94;93.67;99064.03;7347517;19;20359;-63
2023/01/19 04:33:15;;;;;;;22.90;12.02;;;;;;;0.83;93.63;99044.41;7349985;19;20007;-63
2023/01/19 04:35:41;;;;;;;22.52;11.60;;;;;;;0.73;93.79;99039.56;7345818;19;20081;-64
2023/01/19 04:38:05;;;;;;;28.55;15.25;;;;;;;0.87;93.78;99046.84;7349045;19;20473;-64
2023/01/19 04:40:31;;;;;;;20.27;11.10;;;;;;;0.89;93.86;99039.78;7341901;19;20486;-63
2023/01/19 04:42:55;;;;;;;23.08;12.07;;;;;;;0.91;93.78;99042.31;7346719;19;20022;-63
2023/01/19 04:45:20;;;;;;;12.15;7.05;;;;;;;1.02;93.89;99045.34;7349816;19;20512;-64
2023/01/19 04:47:44;;;;;;;23.55;12.65;;;;;;;0.88;93.81;99042.47;7348353;19;20007;-65
2023/01/19 04:50:10;;;;;;;25.33;15.00;;;;;;;0.76;94.02;99046.44;7349064;19;20476;-64
2023/01/19 04:52:35;;;;;;;27.77;12.77;;;;;;;0.67;94.45;99044.22;7347801;19;20026;-63
2023/01/19 04:55:04;;;;;;;22.50;11.63;;;;;;;0.90;94.40;99049.34;7347248;19;20022;-63
2023/01/19 04:57:29;;;;;;;22.35;11.85;;;;;;;0.89;94.34;99052.91;7347145;19;20025;-63
2023/01/19 04:59:55;;;;;;;30.50;13.27;;;;;;;0.96;94.47;99053.47;7346558;19;20014;-64
2023/01/19 05:02:19;;;;;;;23.13;11.80;;;;;;;1.07;94.41;99048.63;7349238;19;20066;-63
2023/01/19 05:04:44;;;;;;;23.40;12.35;;;;;;;1.12;94.21;99051.06;7347304;19;20024;-63
2023/01/19 05:07:09;;;;;;;20.88;11.75;;;;;;;1.11;94.24;99062.50;7348227;19;20010;-62
2023/01/19 05:09:34;;;;;;;16.60;8.93;;;;;;;1.08;94.26;99063.47;7346467;19;20022;-64
2023/01/19 05:11:58;;;;;;;19.15;9.77;;;;;;;1.23;94.10;99065.44;7348359;19;20028;-62
2023/01/19 05:14:23;;;;;;;20.48;9.73;;;;;;;1.23;94.27;99067.22;7347623;19;20018;-63
2023/01/19 05:16:48;;;;;;;12.43;7.53;;;;;;;1.31;94.14;99065.97;7346872;19;20018;-64
2023/01/19 05:19:12;;;;;;;23.88;12.65;;;;;;;1.12;94.18;99067.69;7347366;19;20032;-64
2023/01/19 05:21:37;;;;;;;22.20;10.82;;;;;;;1.18;94.23;99075.28;7346477;19;20133;-64
2023/01/19 05:24:02;;;;;;;21.77;11.52;;;;;;;1.03;94.44;99076.78;7345477;19;20010;-63
2023/01/19 05:26:27;;;;;;;14.68;7.72;;;;;;;1.23;94.42;99077.72;7348723;19;19994;-63
2023/01/19 05:28:52;;;;;;;17.60;10.25;;;;;;;1.19;94.56;99065.63;7347075;19;20494;-64
2023/01/19 05:31:16;;;;;;;27.13;16.35;;;;;;;1.08;94.50;99087.09;7346467;19;20100;-64
2023/01/19 05:33:41;;;;;;;27.63;17.20;;;;;;;1.22;94.35;99091.75;7345777;19;20114;-65
2023/01/19 05:36:06;;;;;;;26.95;13.95;;;;;;;1.19;94.60;99099.75;7346695;19;20017;-64
2023/01/19 05:38:30;;;;;;;21.10;9.57;;;;;;;1.28;94.55;99094.97;7345913;19;20010;-65
2023/01/19 05:40:57;;;;;;;26.70;14.38;;;;;;;1.20;94.50;99106.72;7341840;19;20058;-65
2023/01/19 05:43:24;;;;;;;27.42;14.75;;;;;;;1.10;94.65;99111.50;7346950;19;20521;-63
2023/01/19 05:45:48;;;;;;;16.05;7.63;;;;;;;1.42;94.71;99108.38;7344320;19;20025;-64
2023/01/19 05:48:13;;;;;;;25.60;14.15;;;;;;;1.08;94.83;99113.34;7346630;19;20019;-63
2023/01/19 05:50:37;;;;;;;34.88;18.50;;;;;;;1.19;94.80;99110.25;7342976;19;20543;-63
2023/01/19 05:53:02;;;;;;;16.90;10.07;;;;;;;1.45;94.82;99125.78;7341909;19;20018;-63
2023/01/19 05:55:27;;;;;;;24.70;14.30;;;;;;;1.28;94.81;99136.13;7348325;19;20341;-64
2023/01/19 05:57:52;;;;;;;32.38;17.25;;;;;;;1.21;94.89;99129.44;7346501;19;20007;-64
2023/01/19 06:00:17;;;;;;;20.20;9.07;;;;;;;1.13;95.03;99139.41;7343656;19;20036;-64
2023/01/19 06:02:42;;;;;;;29.58;14.80;;;;;;;1.16;95.13;99136.63;7346027;19;20022;-64
2023/01/19 06:05:07;;;;;;;17.35;8.52;;;;;;;1.25;95.26;99138.88;7348944;19;20472;-63
2023/01/19 06:07:32;;;;;;;18.15;10.77;;;;;;;1.31;94.98;99141.25;7347275;19;20015;-63
2023/01/19 06:09:57;;;;;;;37.47;18.17;;;;;;;1.21;95.13;99150.44;7346041;19;20481;-64
2023/01/19 06:12:21;;;;;;;26.98;14.93;;;;;;;1.29;95.21;99138.69;7349388;19;20046;-66
2023/01/19 06:14:46;;;;;;;30.45;14.73;;;;;;;1.15;95.36;99143.66;7344889;19;20022;-65
2023/01/19 06:17:11;;;;;;;24.58;14.95;;;;;;;1.25;95.34;99157.25;7344198;19;20039;-64
2023/01/19 06:19:35;;;;;;;32.17;17.95;;;;;;;1.17;95.48;99159.34;7343259;19;20383;-64
2023/01/19 06:22:00;;;;;;;23.42;12.40;;;;;;;1.30;95.51;99165.81;7345497;19;20457;-65
2023/01/19 06:24:25;;;;;;;35.22;20.85;;;;;;;1.13;95.66;99184.84;7343595;19;20022;-64
2023/01/19 06:26:49;;;;;;;38.97;22.85;;;;;;;1.20;95.50;99182.84;7343944;19;20007;-64
2023/01/19 06:29:14;;;;;;;29.52;11.23;;;;;;;1.36;95.42;99176.03;7344862;19;20010;-65
2023/01/19 06:31:39;;;;;;;28.42;16.38;;;;;;;1.42;95.26;99173.19;7346021;19;20023;-66
2023/01/19 06:34:04;;;;;;;31.15;15.68;;;;;;;1.24;95.55;99182.66;7343242;19;20022;-64
2023/01/19 06:36:29;;;;;;;25.42;12.43;;;;;;;1.39;95.55;99174.16;7344500;19;20031;-65
2023/01/19 06:38:53;;;;;;;36.17;15.73;;;;;;;1.34;95.54;99173.50;7343502;19;20429;-64
2023/01/19 06:41:18;;;;;;;19.02;8.60;;;;;;;1.42;95.70;99171.41;7344161;19;20035;-72
2023/01/19 06:43:43;;;;;;;34.38;19.75;;;;;;;1.38;95.55;99169.81;7345966;19;20006;-74
2023/01/19 06:46:07;;;;;;;36.63;18.15;;;;;;;1.34;95.48;99167.41;7342721;19;20011;-73
2023/01/19 06:48:32;;;;;;;29.48;15.30;;;;;;;1.32;95.58;99169.22;7345535;19;20078;-71
2023/01/19 06:50:56;;;;;;;10.93;7.50;;;;;;;1.52;95.63;99166.63;7342491;19;20025;-72
2023/01/19 06:53:21;;;;;;;30.13;11.52;;;;;;;1.51;95.81;99164.91;7344156;19;20085;-72
2023/01/19 06:55:46;;;;;;;29.38;13.85;;;;;;;1.44;95.69;99181.84;7342248;19;20045;-75
2023/01/19 06:58:11;;;;;;;18.17;8.85;;;;;;;1.68;95.80;99195.72;7343528;19;20572;-73
2023/01/19 07:00:35;;;;;;;29.52;15.00;;;;;;;1.52;95.68;99189.41;7343198;19;20409;-72
2023/01/19 07:03:00;;;;;;;32.15;17.20;;;;;;;1.40;95.77;99182.88;7343459;19;20360;-73
2023/01/19 07:05:25;;;;;;;42.90;24.27;;;;;;;1.34;95.88;99191.03;7345643;19;20022;-72
2023/01/19 07:07:54;;;;;;;21.73;11.70;;;;;;;1.51;96.02;99188.53;7343267;19;20014;-75
2023/01/19 07:10:20;;;;;;;30.05;15.10;;;;;;;1.65;95.87;99187.97;7346621;19;20003;-73
2023/01/19 07:12:46;;;;;;;37.35;22.98;;;;;;;1.44;95.74;99171.34;7344615;19;20026;-72
2023/01/19 07:15:11;;;;;;;35.72;18.90;;;;;;;1.42;95.84;99186.31;7346405;19;20059;-71
2023/01/19 07:17:35;;;;;;;38.75;17.10;;;;;;;1.47;95.95;99191.38;7346889;19;20027;-73
2023/01/19 07:20:00;;;;;;;29.20;14.90;;;;;;;1.56;95.81;99191.84;7343633;19;20014;-73
2023/01/19 07:22:25;;;;;;;16.60;9.75;;;;;;;1.75;95.89;99199.78;7348356;19;20023;-75
2023/01/19 07:24:49;;;;;;;37.53;17.80;;;;;;;1.61;95.69;99197.75;7352352;19;20015;-73
2023/01/19 07:27:15;;;;;;;24.75;13.23;;;;;;;1.75;95.78;99191.91;7353196;19;20053;-73
2023/01/19 07:29:40;;;;;;;31.58;14.85;;;;;;;1.68;95.63;99198.34;7356536;19;20094;-72
2023/01/19 07:32:06;;;;;;;31.00;17.17;;;;;;;1.51;95.54;99214.81;7353331;19;20011;-73
2023/01/19 07:34:31;;;;;;;36.83;19.38;;;;;;;1.52;95.59;99224.41;7353085;19;20041;-72
2023/01/19 07:36:56;;;;;;;26.35;15.90;;;;;;;1.57;95.64;99242.63;7354139;19;20456;-72
2023/01/19 07:39:20;;;;;;;29.13;16.08;;;;;;;1.65;95.67;99246.63;7351650;19;20014;-73
2023/01/19 07:41:47;;;;;;;31.35;17.50;;;;;;;1.59;95.67;99240.75;7342919;19;20013;-74
2023/01/19 07:44:12;;;;;;;33.08;19.13;;;;;;;1.54;95.69;99253.25;7343481;19;20009;-72
2023/01/19 07:46:36;;;;;;;34.65;21.52;;;;;;;1.72;95.58;99241.94;7343134;19;20086;-73
2023/01/19 07:49:01;;;;;;;31.77;18.30;;;;;;;1.66;95.52;99244.84;7342510;19;20011;-75
2023/01/19 07:51:26;;;;;;;30.33;15.98;;;;;;;1.72;95.63;99253.31;7344400;19;20018;-74
2023/01/19 07:53:51;;;;;;;24.08;14.18;;;;;;;1.86;95.60;99254.53;7345378;19;20006;-74
2023/01/19 07:56:16;;;;;;;28.02;18.98;;;;;;;1.86;95.45;99249.25;7342024;19;20011;-72
2023/01/19 07:58:40;;;;;;;33.67;20.08;;;;;;;1.80;95.27;99250.41;7342077;19;20084;-72
2023/01/19 08:01:11;;;;;;;39.63;22.10;;;;;;;1.78;95.26;99263.59;7340898;19;20018;-72
2023/01/19 08:03:36;;;;;;;25.73;14.50;;;;;;;1.78;95.44;99278.50;7344361;19;20011;-72
2023/01/19 08:06:01;;;;;;;38.55;25.45;;;;;;;1.77;95.18;99290.78;7340054;19;20037;-72
2023/01/19 08:08:28;;;;;;;33.47;18.88;;;;;;;1.80;95.37;99266.16;7341407;19;20456;-72
2023/01/19 08:10:53;;;;;;;33.35;15.18;;;;;;;1.97;95.30;99262.81;7342212;19;20022;-70
2023/01/19 08:13:17;;;;;;;19.13;9.10;;;;;;;1.97;95.21;99289.94;7342470;19;20010;-73
2023/01/19 08:15:42;;;;;;;31.02;17.55;;;;;;;1.96;95.01;99293.50;7347019;19;20014;-72
2023/01/19 08:18:10;;;;;;;38.88;15.50;;;;;;;1.91;95.17;99305.13;7350458;19;20449;-73
2023/01/19 08:20:35;;;;;;;26.45;15.15;;;;;;;1.96;95.05;99303.16;7351618;19;20024;-74
2023/01/19 08:23:01;;;;;;;36.63;19.83;;;;;;;1.83;95.02;99319.44;7355349;19;20078;-72
2023/01/19 08:25:31;;;;;;;38.35;20.83;;;;;;;1.81;94.97;99309.88;7354115;19;20015;-72
2023/01/19 08:27:56;;;;;;;31.92;17.25;;;;;;;1.86;95.06;99317.59;7351965;19;20006;-73
2023/01/19 08:30:20;;;;;;;33.05;19.73;;;;;;;1.78;95.21;99312.66;7352118;19;20020;-73
2023/01/19 08:32:45;;;;;;;32.05;15.85;;;;;;;1.82;95.10;99317.72;7350181;19;20082;-72
2023/01/19 08:35:10;;;;;;;32.90;19.83;;;;;;;1.84;95.14;99312.41;7352806;19;20015;-72
2023/01/19 08:37:34;;;;;;;28.40;15.52;;;;;;;1.86;95.19;99307.09;7345924;19;20081;-73
2023/01/19 08:39:59;;;;;;;30.25;18.10;;;;;;;1.92;95.05;99307.66;7346873;19;20007;-70
2023/01/19 08:42:23;;;;;;;34.22;15.27;;;;;;;1.93;94.86;99319.91;7347554;19;20325;-72
2023/01/19 08:44:48;;;;;;;35.80;19.27;;;;;;;1.74;94.86;99317.19;7348268;19;20011;-71
2023/01/19 08:47:13;;;;;;;37.38;20.75;;;;;;;1.76;94.92;99307.47;7347166;19;20014;-73
2023/01/19 08:49:38;;;;;;;19.40;10.27;;;;;;;1.86;95.08;99309.72;7349381;19;20024;-72
2023/01/19 08:52:02;;;;;;;29.65;15.32;;;;;;;1.94;94.87;99313.72;7348790;19;20006;-74
2023/01/19 08:54:27;;;;;;;30.10;14.15;;;;;;;1.98;94.94;99306.56;7346407;19;20028;-71
2023/01/19 08:56:52;;;;;;;29.92;16.08;;;;;;;2.01;94.74;99301.19;7349150;19;20011;-72
2023/01/19 08:59:16;;;;;;;29.63;15.68;;;;;;;1.98;94.64;99301.31;7347073;19;20493;-72
2023/01/19 09:01:41;;;;;;;29.77;15.45;;;;;;;1.83;94.65;99298.41;7348957;19;20070;-74
2023/01/19 09:04:06;;;;;;;24.92;14.07;;;;;;;1.91;94.61;99297.25;7348168;19;20028;-71
2023/01/19 09:06:31;;;;;;;36.67;20.27;;;;;;;1.80;94.59;99298.56;7346499;19;20028;-71
2023/01/19 09:08:56;;;;;;;17.23;8.38;;;;;;;2.10;94.80;99304.28;7350696;19;20616;-73
2023/01/19 09:11:21;;;;;;;22.48;12.10;;;;;;;2.09;94.68;99305.19;7347163;19;20015;-72
2023/01/19 09:13:45;;;;;;;27.55;12.00;;;;;;;2.15;94.49;99298.81;7348032;19;20074;-71
2023/01/19 09:16:12;;;;;;;37.78;20.80;;;;;;;1.87;94.50;99307.03;7346371;19;20070;-74
2023/01/19 09:18:36;;;;;;;29.92;15.40;;;;;;;1.80;94.65;99293.28;7345920;19;20014;-73
2023/01/19 09:21:02;;;;;;;20.73;12.40;;;;;;;1.96;94.57;99276.88;7346730;19;20018;-71
2023/01/19 09:23:27;;;;;;;31.00;14.77;;;;;;;1.98;94.63;99280.28;7344766;19;20037;-71
2023/01/19 09:25:58;;;;;;;27.08;12.30;;;;;;;2.08;94.92;99285.09;7345051;19;20007;-70
2023/01/19 09:28:22;;;;;;;23.55;11.30;;;;;;;2.09;94.65;99278.06;7348139;19;20094;-71
2023/01/19 09:30:48;;;;;;;34.55;16.65;;;;;;;2.05;94.54;99273.84;7347512;19;20015;-71
2023/01/19 09:33:15;;;;;;;22.40;12.10;;;;;;;2.15;94.41;99277.78;7348342;19;20321;-70
2023/01/19 09:35:41;;;;;;;33.10;15.50;;;;;;;1.98;94.55;99265.38;7344365;19;20018;-70
2023/01/19 09:38:07;;;;;;;37.95;19.92;;;;;;;1.94;94.50;99270.81;7347900;19;20457;-72
2023/01/19 09:40:32;;;;;;;24.67;12.20;;;;;;;2.09;94.63;99286.81;7341855;19;20034;-71
2023/01/19 09:43:12;;;;;;;40.83;17.40;;;;;;;2.02;94.56;99293.25;7345223;19;20009;-71
2023/01/19 09:45:51;;;;;;;22.85;11.57;;;;;;;2.11;94.61;99284.97;7346566;19;20011;-71
2023/01/19 09:48:31;;;;;;;30.25;13.35;;;;;;;2.25;94.41;99305.41;7352394;19;20013;-72
2023/01/19 09:51:00;;;;;;;42.28;18.65;;;;;;;1.99;94.59;99308.28;7347355;19;20136;-71
2023/01/19 09:54:14;;;;;;;33.17;18.17;;;;;;;1.96;94.63;99292.63;7346390;19;20080;-72
2023/01/19 09:56:40;;;;;;;32.58;17.00;;;;;;;1.97;94.65;99299.59;7346716;19;20010;-71
2023/01/19 09:59:24;;;;;;;27.95;12.88;;;;;;;2.20;94.63;99286.34;7347721;19;20010;-71
2023/01/19 10:02:13;;;;;;;32.47;17.00;;;;;;;2.15;94.60;99288.28;7346515;19;20022;-71
2023/01/19 10:04:47;;;;;;;28.52;13.70;;;;;;;2.13;94.51;99275.25;7343384;19;20014;-72
2023/01/19 10:07:44;;;;;;;46.35;18.35;;;;;;;2.21;94.58;99297.72;7345804;19;20020;-72
2023/01/19 10:10:19;;;;;;;29.27;15.40;;;;;;;2.06;94.51;99291.31;7346185;19;20430;-74
2023/01/19 10:13:15;;;;;;;21.90;9.30;;;;;;;2.29;94.54;99291.19;7342963;19;20029;-74
2023/01/19 10:16:13;;;;;;;29.85;15.80;;;;;;;2.26;94.47;99303.66;7345320;19;20066;-73
2023/01/19 10:18:42;;;;;;;35.97;17.40;;;;;;;2.18;94.27;99294.28;7345540;19;20010;-72
2023/01/19 10:21:23;;;;;;;35.17;16.25;;;;;;;2.10;94.45;99287.66;7345212;19;20033;-73
2023/01/19 10:23:57;;;;;;;37.42;16.20;;;;;;;2.15;94.39;99278.63;7342933;19;20019;-71
2023/01/19 10:26:32;;;;;;;30.67;14.75;;;;;;;2.18;94.43;99280.28;7347173;19;20491;-72
2023/01/19 10:29:03;;;;;;;25.60;13.93;;;;;;;2.13;94.39;99292.78;7343608;19;20021;-75
2023/01/19 10:31:28;;;;;;;16.35;9.98;;;;;;;2.26;94.46;99265.00;7345781;19;20013;-74
2023/01/19 10:33:53;;;;;;;40.08;18.08;;;;;;;2.21;94.31;99281.94;7346536;19;20023;-72
2023/01/19 10:36:24;;;;;;;32.00;15.00;;;;;;;2.19;94.33;99289.88;7344296;19;20469;-73
2023/01/19 10:38:49;;;;;;;34.40;16.48;;;;;;;2.18;94.46;99280.28;7340136;19;20015;-73
2023/01/19 10:41:23;;;;;;;36.55;18.55;;;;;;;2.15;94.51;99298.81;7343607;19;20088;-72
2023/01/19 10:43:48;;;;;;;26.15;12.45;;;;;;;2.18;94.73;99303.94;7342111;19;20098;-70
2023/01/19 10:46:46;;;;;;;36.85;17.58;;;;;;;2.26;94.62;99291.31;7343260;19;20102;-72
2023/01/19 10:49:37;;;;;;;28.48;14.02;;;;;;;2.45;94.48;99296.66;7342354;19;20021;-71
2023/01/19 10:52:03;;;;;;;37.30;17.67;;;;;;;2.39;94.17;99296.91;7344895;19;20014;-70
2023/01/19 10:54:30;;;;;;;18.50;10.27;;;;;;;2.40;94.13;99310.00;7343111;19;20439;-72
2023/01/19 10:57:00;;;;;;;38.80;18.13;;;;;;;2.29;93.81;99293.81;7344458;19;20022;-71
2023/01/19 10:59:45;;;;;;;31.27;16.00;;;;;;;2.32;94.03;99291.06;7343000;19;20022;-72
2023/01/19 11:02:20;;;;;;;39.85;18.55;;;;;;;2.34;94.01;99301.53;7347129;19;20381;-70
2023/01/19 11:04:48;;;;;;;36.53;18.05;;;;;;;2.38;93.80;99301.31;7344762;19;20018;-74
2023/01/19 11:07:31;;;;;;;40.13;19.40;;;;;;;2.31;93.87;99302.50;7351860;19;20013;-73
2023/01/19 11:10:14;;;;;;;40.13;17.55;;;;;;;2.41;93.67;99305.59;7351641;19;20011;-72
2023/01/19 11:12:44;;;;;;;51.70;25.20;;;;;;;2.18;93.55;99320.59;7345296;19;20069;-74
2023/01/19 11:15:22;;;;;;;48.28;22.50;;;;;;;2.13;94.19;99322.56;7345625;19;20489;-73
2023/01/19 11:17:48;;;;;;;34.70;18.45;;;;;;;2.14;94.14;99310.28;7347477;19;20457;-72
2023/01/19 11:20:26;;;;;;;41.10;18.35;;;;;;;2.32;93.84;99301.59;7349723;19;20453;-73
2023/01/19 11:23:06;;;;;;;41.20;18.55;;;;;;;2.17;94.04;99308.34;7353122;19;20105;-71
2023/01/19 11:25:34;;;;;;;36.58;19.02;;;;;;;2.28;93.80;99318.41;7347755;19;20015;-74
2023/01/19 11:27:59;;;;;;;37.63;18.23;;;;;;;2.16;93.61;99329.44;7350688;19;20396;-73
2023/01/19 11:30:25;;;;;;;41.33;19.73;;;;;;;2.24;93.81;99323.88;7350581;19;20011;-72
2023/01/19 11:32:50;;;;;;;34.22;17.52;;;;;;;2.12;93.86;99325.25;7351812;19;20015;-72
2023/01/19 11:35:34;;;;;;;40.10;18.30;;;;;;;2.22;93.93;99325.72;7348688;19;20019;-71